Time;durP1;ratioP1;P1;durP2;ratioP2;P2;SDS_P1;SDS_P2;PMS_P1;PMS_P2;Temp;Humidity;BMP_temperature;BMP_pressure;BME280_temperature;BME280_humidity;BME280_pressure;Samples;Min_cycle;Max_cycle;Signal;HPM_P1;HPM_P2
2022/01/20 00:01:11;;;;;;;13.35;6.13;;;6.80;90.50;;;;;;5133679;27;20063;-59
2022/01/20 00:03:41;;;;;;;7.53;5.57;;;6.80;90.60;;;;;;5111134;27;20397;-59
2022/01/20 00:28:20;;;;;;;11.23;6.20;;;6.60;91.10;;;;;;5113141;28;20093;-60
2022/01/20 00:31:02;;;;;;;9.48;5.57;;;6.50;91.10;;;;;;5122875;27;20032;-60
2022/01/20 00:33:39;;;;;;;8.70;4.82;;;6.40;91.30;;;;;;5130267;27;20047;-60
2022/01/20 00:38:38;;;;;;;8.68;5.80;;;6.30;91.50;;;;;;5139931;27;20044;-60
2022/01/20 00:41:12;;;;;;;11.85;6.90;;;6.30;91.70;;;;;;5103760;28;20558;-59
2022/01/20 00:43:39;;;;;;;13.57;8.18;;;6.30;91.60;;;;;;5113457;28;20040;-59
2022/01/20 00:46:07;;;;;;;12.85;8.73;;;6.30;91.80;;;;;;5099793;27;20439;-59
2022/01/20 00:48:35;;;;;;;14.32;8.52;;;6.20;92.00;;;;;;5110043;27;20050;-59
2022/01/20 00:51:03;;;;;;;11.95;8.18;;;6.20;92.10;;;;;;5099851;27;20055;-60
2022/01/20 00:53:30;;;;;;;15.32;9.70;;;6.20;92.10;;;;;;5116519;27;20039;-59
2022/01/20 00:55:58;;;;;;;17.60;10.75;;;6.20;92.20;;;;;;5104995;28;20048;-59
2022/01/20 00:58:26;;;;;;;18.50;13.40;;;6.10;92.40;;;;;;5118711;27;20482;-59
2022/01/20 01:00:53;;;;;;;20.17;13.52;;;6.10;92.40;;;;;;5123831;27;20089;-60
2022/01/20 01:03:21;;;;;;;17.10;12.48;;;6.00;92.60;;;;;;5133815;27;20031;-60
2022/01/20 01:06:06;;;;;;;19.00;12.68;;;6.00;92.70;;;;;;5130945;27;20044;-59
2022/01/20 01:08:34;;;;;;;25.08;13.70;;;6.10;92.70;;;;;;5092238;27;20043;-59
2022/01/20 01:11:01;;;;;;;22.85;13.35;;;6.00;92.80;;;;;;5116015;27;20077;-60
2022/01/20 01:13:29;;;;;;;21.85;13.20;;;6.00;92.80;;;;;;5098200;27;20122;-59
2022/01/20 01:15:57;;;;;;;17.73;13.38;;;6.00;93.00;;;;;;5134670;27;20046;-59
2022/01/20 01:21:43;;;;;;;22.90;14.40;;;5.90;93.30;;;;;;5113385;27;20059;-59
2022/01/20 01:24:05;;;;;;;16.92;12.38;;;5.80;93.20;;;;;;5115078;27;20292;-59
2022/01/20 01:26:33;;;;;;;22.75;13.30;;;5.90;93.20;;;;;;5096402;28;20043;-59
2022/01/20 01:29:04;;;;;;;26.20;16.35;;;5.90;93.10;;;;;;5092951;27;20465;-58
2022/01/20 01:31:38;;;;;;;20.25;13.02;;;6.00;92.90;;;;;;5109484;28;20051;-58
2022/01/20 01:34:12;;;;;;;18.65;13.10;;;5.90;92.80;;;;;;5108889;28;20050;-59
2022/01/20 01:39:19;;;;;;;23.52;12.75;;;5.80;93.10;;;;;;5111343;27;20051;-59
2022/01/20 01:41:47;;;;;;;17.30;11.75;;;5.70;93.00;;;;;;5087489;28;20086;-60
2022/01/20 01:44:22;;;;;;;16.70;12.45;;;5.80;92.90;;;;;;5120369;27;20092;-61
2022/01/20 01:46:52;;;;;;;17.67;13.23;;;5.80;92.60;;;;;;5121855;27;20050;-60
2022/01/20 01:49:20;;;;;;;21.67;12.80;;;5.80;92.30;;;;;;5085078;27;20036;-60
2022/01/20 01:51:50;;;;;;;17.30;12.45;;;5.80;92.20;;;;;;5101590;28;20044;-60
2022/01/20 01:54:18;;;;;;;18.73;11.93;;;5.80;91.90;;;;;;5106133;27;20063;-59
2022/01/20 01:56:48;;;;;;;15.77;12.90;;;5.80;91.60;;;;;;5102628;27;20445;-61
2022/01/20 01:59:20;;;;;;;18.90;11.10;;;5.90;91.50;;;;;;5093470;27;20058;-59
2022/01/20 02:02:14;;;;;;;17.48;11.73;;;5.90;91.10;;;;;;5086658;27;20390;-59
2022/01/20 02:04:44;;;;;;;14.50;10.90;;;5.80;90.90;;;;;;5100495;27;20053;-59
2022/01/20 02:18:52;;;;;;;17.88;12.55;;;5.90;90.80;;;;;;5111087;27;20039;-59
2022/01/20 02:21:45;;;;;;;17.58;12.10;;;5.90;90.90;;;;;;5089175;27;20439;-60
2022/01/20 02:24:13;;;;;;;16.42;12.80;;;5.90;91.00;;;;;;5102488;27;20081;-59
2022/01/20 02:26:41;;;;;;;19.33;11.25;;;5.90;91.00;;;;;;5084002;28;20046;-59
2022/01/20 02:29:11;;;;;;;17.67;12.15;;;5.90;91.10;;;;;;5080784;27;20125;-59
2022/01/20 02:31:39;;;;;;;16.30;11.23;;;6.00;91.10;;;;;;5120528;27;20078;-59
2022/01/20 02:34:14;;;;;;;15.40;9.90;;;6.00;91.10;;;;;;5075539;27;20059;-59
2022/01/20 02:36:45;;;;;;;15.02;10.13;;;6.00;91.10;;;;;;5120656;27;20050;-59
2022/01/20 02:44:56;;;;;;;13.35;8.30;;;6.10;91.20;;;;;;5123485;27;20464;-59
2022/01/20 02:47:28;;;;;;;12.90;8.18;;;6.20;91.20;;;;;;5096953;27;20041;-59
2022/01/20 02:49:56;;;;;;;11.05;7.43;;;6.30;91.20;;;;;;5097897;27;20146;-59
2022/01/20 02:52:24;;;;;;;13.27;8.35;;;6.40;91.30;;;;;;5116182;27;20130;-59
2022/01/20 02:54:54;;;;;;;12.65;8.27;;;6.40;91.50;;;;;;5133236;27;20167;-59
2022/01/20 02:57:23;;;;;;;13.95;8.20;;;6.50;91.60;;;;;;5116393;28;20047;-59
2022/01/20 02:59:53;;;;;;;11.88;7.97;;;6.50;91.60;;;;;;5116425;28;20051;-59
2022/01/20 03:02:20;;;;;;;10.82;7.53;;;6.50;91.70;;;;;;5115735;28;20092;-60
2022/01/20 03:04:49;;;;;;;12.30;7.93;;;6.50;91.70;;;;;;5113504;28;20227;-59
2022/01/20 03:07:26;;;;;;;13.77;8.20;;;6.60;92.00;;;;;;5097205;28;20051;-59
2022/01/20 03:09:54;;;;;;;12.05;8.38;;;6.60;91.90;;;;;;5097120;28;20666;-59
2022/01/20 03:12:21;;;;;;;15.00;8.95;;;6.50;92.00;;;;;;5114044;28;20039;-60
2022/01/20 03:14:49;;;;;;;12.15;7.80;;;6.40;92.10;;;;;;5114022;28;20035;-60
2022/01/20 03:17:17;;;;;;;10.75;7.03;;;6.40;92.10;;;;;;5080154;28;20047;-59
2022/01/20 03:19:45;;;;;;;11.27;7.20;;;6.40;92.00;;;;;;5116135;28;20430;-59
2022/01/20 03:22:13;;;;;;;12.98;6.88;;;6.30;91.90;;;;;;5115604;28;20058;-59
2022/01/20 03:24:41;;;;;;;10.98;7.50;;;6.30;91.90;;;;;;5099145;28;20459;-59
2022/01/20 03:27:08;;;;;;;15.05;8.95;;;6.30;92.20;;;;;;5098773;28;20401;-59
2022/01/20 03:29:36;;;;;;;12.18;8.18;;;6.30;92.40;;;;;;5099012;28;20472;-59
2022/01/20 03:32:05;;;;;;;10.90;8.10;;;6.20;92.40;;;;;;5082507;28;20154;-59
2022/01/20 03:34:32;;;;;;;12.57;9.68;;;6.20;92.60;;;;;;5098838;28;20047;-59
2022/01/20 03:37:05;;;;;;;15.90;9.25;;;6.20;92.80;;;;;;5115628;28;20127;-59
2022/01/20 03:39:47;;;;;;;17.38;9.45;;;6.10;92.90;;;;;;5113722;28;20059;-59
2022/01/20 03:42:15;;;;;;;18.77;8.73;;;6.10;93.10;;;;;;5115813;28;20047;-59
2022/01/20 03:44:42;;;;;;;14.18;8.98;;;6.10;93.10;;;;;;5098854;28;20419;-59
2022/01/20 03:47:11;;;;;;;12.75;8.15;;;6.10;93.00;;;;;;5115722;28;20077;-59
2022/01/20 03:52:25;;;;;;;13.65;9.05;;;6.00;92.60;;;;;;5115714;28;20039;-59
2022/01/20 03:54:53;;;;;;;15.05;8.55;;;6.00;92.60;;;;;;5133840;28;20043;-58
2022/01/20 03:57:21;;;;;;;13.57;9.02;;;6.00;92.60;;;;;;5115479;28;20134;-59
2022/01/20 04:00:08;;;;;;;13.85;8.43;;;5.90;92.60;;;;;;5118754;28;20408;-59
2022/01/20 04:02:46;;;;;;;12.43;6.82;;;5.90;92.70;;;;;;5115737;28;20372;-59
2022/01/20 04:05:48;;;;;;;13.23;6.70;;;5.90;92.90;;;;;;5115662;28;20424;-59
2022/01/20 04:08:41;;;;;;;11.98;6.72;;;5.90;93.10;;;;;;5101615;28;20494;-59
2022/01/20 04:11:24;;;;;;;12.93;6.93;;;5.90;93.30;;;;;;5115952;28;20092;-59
2022/01/20 04:13:52;;;;;;;13.27;6.75;;;5.90;93.50;;;;;;5098643;28;20142;-58
2022/01/20 04:19:26;;;;;;;10.87;7.87;;;5.90;93.70;;;;;;5102238;27;20046;-58
2022/01/20 04:21:54;;;;;;;8.63;5.40;;;5.90;94.10;;;;;;5119144;27;20310;-58
2022/01/20 04:24:21;;;;;;;9.32;6.40;;;5.90;94.30;;;;;;5119078;27;20114;-58
2022/01/20 04:26:50;;;;;;;8.63;5.93;;;5.90;94.30;;;;;;5119143;27;20043;-58
2022/01/20 04:29:19;;;;;;;10.50;7.35;;;5.80;94.50;;;;;;5101824;27;20374;-58
2022/01/20 04:31:48;;;;;;;9.77;6.25;;;5.80;94.60;;;;;;5119209;27;20123;-58
2022/01/20 04:34:17;;;;;;;9.38;6.47;;;5.80;94.70;;;;;;5119211;27;20070;-59
2022/01/20 04:36:47;;;;;;;11.50;6.22;;;5.80;94.90;;;;;;5118655;27;20067;-58
2022/01/20 04:39:18;;;;;;;10.05;6.75;;;5.80;95.00;;;;;;5118776;27;20050;-58
2022/01/20 04:41:48;;;;;;;9.98;5.85;;;5.80;95.10;;;;;;5118581;27;20079;-58
2022/01/20 04:44:30;;;;;;;9.20;5.40;;;5.80;95.20;;;;;;5118696;27;20043;-58
2022/01/20 04:47:14;;;;;;;9.25;5.65;;;5.80;95.40;;;;;;5118601;27;20496;-58
2022/01/20 04:58:00;;;;;;;12.27;6.68;;;5.80;95.90;;;;;;5100459;27;20043;-58
2022/01/20 05:00:29;;;;;;;7.00;5.32;;;5.80;96.00;;;;;;5101710;27;20043;-58
2022/01/20 05:03:15;;;;;;;13.10;6.83;;;5.80;96.10;;;;;;5136792;27;20502;-59
2022/01/20 05:05:45;;;;;;;7.55;5.05;;;5.90;96.10;;;;;;5101309;27;20054;-58
2022/01/20 05:08:21;;;;;;;8.80;5.35;;;5.80;96.30;;;;;;5136493;27;20039;-59
2022/01/20 05:10:53;;;;;;;8.32;5.68;;;5.90;96.40;;;;;;5118264;27;20039;-59
2022/01/20 05:13:32;;;;;;;11.02;6.28;;;5.80;96.50;;;;;;5118068;27;20085;-59
2022/01/20 05:16:00;;;;;;;12.95;5.30;;;5.90;96.60;;;;;;5118240;27;20043;-59
2022/01/20 05:18:29;;;;;;;10.60;5.10;;;5.80;96.80;;;;;;5118102;27;20212;-59
2022/01/20 05:20:56;;;;;;;9.52;5.50;;;5.80;96.80;;;;;;5117963;27;20039;-58
2022/01/20 05:23:24;;;;;;;8.80;5.25;;;5.80;97.00;;;;;;5100825;27;20062;-59
2022/01/20 05:25:52;;;;;;;9.15;5.43;;;5.80;97.10;;;;;;5117724;27;20070;-59
2022/01/20 05:28:21;;;;;;;7.32;4.72;;;5.80;97.30;;;;;;5117590;27;20073;-59
2022/01/20 05:30:49;;;;;;;13.00;5.47;;;5.80;97.30;;;;;;5117527;27;20036;-59
2022/01/20 05:33:40;;;;;;;6.65;4.68;;;5.80;97.40;;;;;;5127673;27;20497;-59
2022/01/20 05:36:08;;;;;;;7.43;5.60;;;5.80;97.40;;;;;;5117420;27;20050;-59
2022/01/20 05:38:37;;;;;;;6.85;4.82;;;5.80;97.50;;;;;;5117341;27;20043;-59
2022/01/20 05:41:05;;;;;;;7.28;5.43;;;5.70;97.60;;;;;;5117609;27;20051;-59
2022/01/20 05:43:33;;;;;;;8.18;4.85;;;5.70;97.60;;;;;;5100540;27;20516;-58
2022/01/20 05:46:03;;;;;;;9.30;5.38;;;5.80;97.60;;;;;;5100117;27;20043;-59
2022/01/20 05:48:35;;;;;;;8.52;6.25;;;5.80;97.80;;;;;;5100292;27;20096;-58
2022/01/20 05:51:04;;;;;;;8.55;6.35;;;5.70;97.80;;;;;;5117026;27;20055;-58
2022/01/20 05:53:32;;;;;;;7.20;4.60;;;5.70;97.80;;;;;;5117018;27;20400;-59
2022/01/20 05:56:00;;;;;;;12.00;5.63;;;5.70;98.00;;;;;;5099866;27;20055;-58
2022/01/20 05:58:30;;;;;;;9.90;5.13;;;5.70;98.10;;;;;;5116779;27;20039;-59
2022/01/20 06:00:59;;;;;;;7.90;4.78;;;5.70;98.10;;;;;;5099388;27;20062;-59
2022/01/20 06:03:36;;;;;;;8.52;4.88;;;5.70;98.20;;;;;;5116406;27;20122;-59
2022/01/20 06:06:11;;;;;;;14.68;7.10;;;5.70;98.20;;;;;;5116692;27;20035;-59
2022/01/20 06:08:41;;;;;;;8.38;5.40;;;5.80;98.30;;;;;;5099076;27;20121;-58
2022/01/20 06:11:11;;;;;;;7.82;4.57;;;5.70;98.60;;;;;;5116594;27;20043;-59
2022/01/20 06:13:40;;;;;;;7.35;5.05;;;5.70;98.90;;;;;;5099521;27;20047;-58
2022/01/20 06:16:08;;;;;;;9.70;5.15;;;5.80;98.80;;;;;;5116516;27;20035;-58
2022/01/20 06:18:36;;;;;;;7.00;4.47;;;5.90;98.70;;;;;;5116506;27;20051;-58
2022/01/20 06:21:03;;;;;;;5.97;4.45;;;5.90;98.90;;;;;;5117070;27;20047;-59
2022/01/20 06:23:31;;;;;;;13.02;5.13;;;5.90;98.70;;;;;;5116546;27;20061;-58
2022/01/20 06:26:04;;;;;;;7.82;5.03;;;6.10;98.80;;;;;;5116489;27;20066;-58
2022/01/20 06:28:37;;;;;;;9.27;5.68;;;6.40;98.50;;;;;;5116448;27;20077;-58
2022/01/20 06:31:09;;;;;;;10.52;4.80;;;6.90;97.70;;;;;;5099430;27;20058;-58
2022/01/20 06:33:37;;;;;;;11.48;5.55;;;7.30;96.80;;;;;;5134789;27;20050;-58
2022/01/20 06:36:05;;;;;;;6.97;4.43;;;7.80;96.20;;;;;;5116117;27;20069;-58
2022/01/20 06:38:33;;;;;;;9.07;5.43;;;7.90;95.70;;;;;;5116150;27;20041;-59
2022/01/20 06:41:02;;;;;;;7.32;5.03;;;8.20;95.30;;;;;;5115433;27;20059;-59
2022/01/20 06:43:33;;;;;;;7.70;4.55;;;8.60;94.80;;;;;;5099685;27;20039;-59
2022/01/20 06:46:02;;;;;;;5.47;3.50;;;8.90;94.30;;;;;;5116191;27;20035;-59
2022/01/20 06:48:48;;;;;;;8.23;4.43;;;9.20;94.20;;;;;;5116472;27;20059;-58
2022/01/20 06:51:22;;;;;;;6.85;4.15;;;10.00;92.80;;;;;;5134574;27;20031;-59
2022/01/20 06:53:49;;;;;;;8.98;5.00;;;10.50;92.60;;;;;;5116148;27;20039;-58
2022/01/20 06:56:17;;;;;;;8.57;5.43;;;11.20;91.20;;;;;;5099064;28;20115;-59
2022/01/20 06:58:56;;;;;;;12.18;4.93;;;11.30;90.80;;;;;;5099057;28;20466;-59
2022/01/20 07:01:24;;;;;;;9.13;5.90;;;12.00;89.30;;;;;;5116162;27;20126;-59
2022/01/20 07:03:53;;;;;;;8.48;6.45;;;11.70;89.80;;;;;;5115964;28;20045;-59
2022/01/20 07:06:21;;;;;;;7.95;5.38;;;11.70;89.90;;;;;;5116228;28;20043;-59
2022/01/20 07:09:09;;;;;;;10.07;5.33;;;12.10;89.70;;;;;;5134379;28;20067;-59
2022/01/20 07:11:38;;;;;;;7.68;5.57;;;12.20;89.50;;;;;;5098960;28;20057;-59
2022/01/20 07:14:06;;;;;;;8.68;5.63;;;12.70;88.00;;;;;;5115598;28;20118;-59
2022/01/20 07:16:35;;;;;;;9.07;5.47;;;13.30;87.00;;;;;;5115510;28;20065;-59
2022/01/20 07:19:03;;;;;;;9.55;5.28;;;13.80;85.60;;;;;;5115719;28;20039;-58
2022/01/20 07:21:31;;;;;;;8.38;6.45;;;14.40;84.40;;;;;;5116064;28;20096;-58
2022/01/20 07:24:02;;;;;;;12.50;6.57;;;15.00;82.40;;;;;;5116257;28;20594;-58
2022/01/20 07:26:30;;;;;;;8.82;6.53;;;15.80;80.90;;;;;;5099127;28;20558;-58
2022/01/20 07:29:07;;;;;;;7.85;5.38;;;16.10;80.50;;;;;;5083678;28;20039;-58
2022/01/20 07:31:35;;;;;;;9.68;5.05;;;16.40;79.60;;;;;;5115882;28;20063;-58
2022/01/20 07:34:03;;;;;;;8.27;5.60;;;16.70;78.70;;;;;;5115919;28;20442;-58
2022/01/20 07:36:31;;;;;;;6.57;5.00;;;16.40;79.00;;;;;;5099081;28;20047;-58
2022/01/20 07:38:58;;;;;;;12.13;5.40;;;16.30;79.50;;;;;;5115948;28;20043;-58
2022/01/20 07:41:26;;;;;;;8.88;4.57;;;16.20;79.70;;;;;;5098701;28;20047;-58
2022/01/20 07:43:55;;;;;;;10.50;7.03;;;15.70;80.30;;;;;;5115866;28;20038;-58
2022/01/20 07:46:50;;;;;;;6.15;4.05;;;15.20;82.60;;;;;;5117372;28;20058;-59
2022/01/20 07:49:19;;;;;;;7.00;4.60;;;15.60;81.90;;;;;;5115901;28;20126;-59
2022/01/20 07:51:47;;;;;;;9.10;4.68;;;15.40;82.60;;;;;;5118660;27;20039;-59
2022/01/20 07:54:15;;;;;;;7.05;4.20;;;14.80;83.30;;;;;;5102922;27;20071;-59
2022/01/20 07:56:43;;;;;;;6.00;3.95;;;14.70;84.20;;;;;;5102480;27;20393;-59
2022/01/20 07:59:10;;;;;;;5.13;3.47;;;14.00;86.00;;;;;;5102386;27;20071;-59
2022/01/20 08:01:42;;;;;;;8.90;3.13;;;13.90;86.80;;;;;;5119394;27;20035;-59
2022/01/20 08:04:11;;;;;;;7.13;3.78;;;13.70;87.80;;;;;;5119499;27;20460;-59
2022/01/20 08:06:40;;;;;;;6.43;3.22;;;13.80;88.60;;;;;;5119474;27;20035;-59
2022/01/20 08:09:14;;;;;;;5.95;3.40;;;14.10;88.00;;;;;;5119285;27;20049;-59
2022/01/20 08:11:57;;;;;;;8.45;3.45;;;14.30;86.90;;;;;;5137667;27;20129;-59
2022/01/20 08:14:40;;;;;;;13.80;6.80;;;14.40;87.70;;;;;;5088010;27;20054;-59
2022/01/20 08:17:12;;;;;;;7.32;4.70;;;14.70;87.00;;;;;;5102108;27;20096;-59
2022/01/20 08:19:44;;;;;;;6.07;3.35;;;14.80;86.60;;;;;;5102131;27;20493;-59
2022/01/20 08:22:13;;;;;;;7.05;3.55;;;14.80;86.80;;;;;;5102349;27;20156;-59
2022/01/20 08:24:57;;;;;;;7.30;3.80;;;14.60;86.70;;;;;;5119123;27;20077;-59
2022/01/20 08:27:25;;;;;;;8.50;4.20;;;14.50;87.60;;;;;;5102054;27;20070;-59
2022/01/20 08:29:53;;;;;;;7.45;3.53;;;14.50;87.50;;;;;;5118810;27;20066;-59
2022/01/20 08:32:24;;;;;;;7.28;4.70;;;13.90;88.80;;;;;;5102178;27;20150;-59
2022/01/20 08:35:20;;;;;;;7.88;4.43;;;13.70;89.50;;;;;;5133112;27;20059;-60
2022/01/20 08:37:52;;;;;;;7.40;4.57;;;13.50;90.10;;;;;;5118975;27;20039;-59
2022/01/20 08:40:24;;;;;;;7.65;3.67;;;13.20;90.80;;;;;;5136847;27;20469;-58
2022/01/20 08:42:55;;;;;;;8.30;3.78;;;13.10;91.10;;;;;;5118706;27;20043;-58
2022/01/20 08:45:28;;;;;;;10.85;5.13;;;13.00;91.20;;;;;;5118747;27;20114;-59
2022/01/20 08:47:58;;;;;;;7.88;3.72;;;13.00;91.40;;;;;;5101806;27;20047;-59
2022/01/20 08:50:42;;;;;;;7.68;3.45;;;13.10;91.40;;;;;;5103445;27;20054;-58
2022/01/20 08:53:11;;;;;;;8.40;2.60;;;12.90;91.70;;;;;;5084537;27;20408;-59
2022/01/20 08:55:40;;;;;;;3.20;2.30;;;12.90;91.60;;;;;;5118478;27;20043;-59
2022/01/20 08:58:13;;;;;;;6.78;4.10;;;12.80;91.70;;;;;;5118356;27;20039;-59
2022/01/20 09:00:42;;;;;;;7.25;3.35;;;12.80;92.10;;;;;;5101902;27;20433;-59
2022/01/20 09:03:12;;;;;;;8.75;4.63;;;12.80;92.10;;;;;;5099447;27;20050;-58
2022/01/20 09:05:40;;;;;;;6.10;3.95;;;12.80;92.30;;;;;;5101187;27;20133;-58
2022/01/20 09:08:21;;;;;;;13.57;3.05;;;12.80;92.40;;;;;;5118249;27;20039;-58
2022/01/20 09:10:55;;;;;;;5.47;4.55;;;12.70;92.70;;;;;;5118370;27;20039;-58
2022/01/20 09:16:15;;;;;;;5.53;2.83;;;12.70;92.80;;;;;;5118196;27;20103;-59
2022/01/20 09:18:50;;;;;;;4.57;3.63;;;12.80;92.90;;;;;;5117912;27;20580;-59
2022/01/20 09:21:22;;;;;;;6.30;2.85;;;13.00;92.90;;;;;;5101040;27;20397;-60
2022/01/20 09:23:55;;;;;;;6.35;3.50;;;13.10;92.80;;;;;;5101135;27;20047;-59
2022/01/20 09:26:23;;;;;;;5.43;2.80;;;13.10;92.70;;;;;;5100735;27;20051;-59
2022/01/20 09:28:54;;;;;;;6.97;4.30;;;13.20;92.80;;;;;;5100636;27;20054;-59
2022/01/20 09:31:26;;;;;;;6.50;3.15;;;13.20;92.80;;;;;;5117345;27;20069;-59
2022/01/20 09:33:55;;;;;;;4.65;2.63;;;13.10;93.10;;;;;;5117919;27;20084;-60
2022/01/20 09:36:26;;;;;;;3.30;2.50;;;13.20;93.20;;;;;;5100631;27;20137;-59
2022/01/20 09:38:54;;;;;;;5.70;2.67;;;13.10;93.30;;;;;;5117771;27;20039;-60
2022/01/20 09:41:38;;;;;;;6.80;4.05;;;13.10;93.20;;;;;;5117599;27;20512;-59
2022/01/20 09:44:06;;;;;;;5.57;3.50;;;13.20;93.40;;;;;;5100009;27;20100;-59
2022/01/20 09:46:35;;;;;;;4.70;2.80;;;13.20;93.50;;;;;;5100768;27;20370;-59
2022/01/20 09:49:12;;;;;;;7.60;4.00;;;13.20;93.60;;;;;;5117693;27;20039;-59
2022/01/20 09:51:42;;;;;;;5.72;3.20;;;13.40;93.50;;;;;;5117624;27;20043;-59
2022/01/20 09:54:17;;;;;;;4.18;3.13;;;13.30;93.40;;;;;;5117261;27;20043;-60
2022/01/20 09:57:09;;;;;;;4.25;3.40;;;13.50;93.60;;;;;;5100649;27;20058;-59
2022/01/20 09:59:37;;;;;;;4.18;2.40;;;13.70;93.20;;;;;;5117358;27;20031;-59
2022/01/20 10:02:09;;;;;;;8.40;4.25;;;13.80;93.10;;;;;;5135584;27;20092;-60
2022/01/20 10:04:36;;;;;;;9.23;8.25;;;13.70;93.30;;;;;;5099885;27;20142;-59
2022/01/20 10:07:18;;;;;;;14.90;8.70;;;13.80;93.30;;;;;;5100347;27;20043;-60
2022/01/20 10:09:55;;;;;;;21.83;11.35;;;13.80;93.30;;;;;;5100127;27;20489;-62
2022/01/20 10:13:05;;;;;;;6.18;3.05;;;13.80;93.10;;;;;;5099710;27;20375;-61
2022/01/20 10:16:06;;;;;;;5.95;3.25;;;13.80;93.50;;;;;;5124347;27;20054;-61
2022/01/20 10:18:50;;;;;;;12.15;6.95;;;13.80;93.20;;;;;;5119274;27;20071;-61
2022/01/20 10:21:29;;;;;;;6.88;3.72;;;13.60;93.40;;;;;;5116841;27;20031;-62
2022/01/20 10:24:08;;;;;;;4.70;3.47;;;13.80;93.70;;;;;;5117088;27;20127;-61
2022/01/20 10:26:48;;;;;;;5.05;3.28;;;13.90;93.50;;;;;;5101247;27;20050;-61
2022/01/20 10:29:16;;;;;;;4.68;2.53;;;14.00;93.30;;;;;;5116896;27;20076;-62
2022/01/20 10:31:52;;;;;;;;;;;14.00;93.10;;;;;;5101393;27;20096;-62
2022/01/20 10:34:35;;;;;;;5.07;2.58;;;14.10;93.20;;;;;;5099959;27;20288;-62
2022/01/20 10:37:18;;;;;;;5.30;2.30;;;14.30;93.20;;;;;;5134754;27;20043;-61
2022/01/20 10:40:12;;;;;;;5.45;2.28;;;14.10;92.70;;;;;;5099067;27;20047;-61
2022/01/20 10:42:57;;;;;;;5.50;2.80;;;13.90;93.00;;;;;;5090601;28;20040;-61
2022/01/20 10:45:30;;;;;;;4.97;2.72;;;14.00;93.10;;;;;;5061741;28;20573;-64
2022/01/20 10:48:01;;;;;;;5.35;2.45;;;14.10;93.10;;;;;;5068051;28;20056;-61
2022/01/20 10:50:36;;;;;;;6.00;2.72;;;14.10;93.20;;;;;;5103188;28;20087;-62
2022/01/20 10:53:17;;;;;;;12.52;5.22;;;14.00;93.30;;;;;;5090518;28;20059;-61
2022/01/20 10:55:45;;;;;;;18.70;8.98;;;13.90;93.30;;;;;;5089600;28;20040;-61
2022/01/20 10:58:22;;;;;;;8.13;3.65;;;13.50;93.60;;;;;;5086109;28;20047;-62
2022/01/20 11:00:56;;;;;;;7.60;4.03;;;13.30;93.90;;;;;;5090564;28;20122;-61
2022/01/20 11:03:27;;;;;;;3.92;2.83;;;13.20;94.40;;;;;;5088350;28;20493;-62
2022/01/20 11:05:58;;;;;;;18.80;7.32;;;13.00;94.50;;;;;;5090975;28;20031;-61
2022/01/20 11:08:50;;;;;;;13.75;5.53;;;12.90;94.90;;;;;;5102146;28;20043;-61
2022/01/20 11:11:26;;;;;;;13.35;5.70;;;12.70;95.20;;;;;;5069305;28;20078;-60
2022/01/20 11:14:08;;;;;;;9.98;4.28;;;12.70;95.40;;;;;;5095418;28;20046;-60
2022/01/20 11:16:40;;;;;;;7.10;4.30;;;12.60;95.70;;;;;;5086920;28;20100;-60
2022/01/20 11:19:36;;;;;;;9.32;6.35;;;12.60;95.70;;;;;;5091160;28;20048;-61
2022/01/20 11:22:06;;;;;;;13.20;5.97;;;12.80;95.60;;;;;;5047248;28;20102;-62
2022/01/20 11:24:36;;;;;;;5.43;2.60;;;13.10;95.20;;;;;;5073304;28;20039;-60
2022/01/20 11:27:10;;;;;;;6.82;3.20;;;13.20;94.60;;;;;;5118350;27;20388;-60
2022/01/20 11:30:01;;;;;;;5.85;2.85;;;13.20;94.50;;;;;;5117639;27;20031;-61
2022/01/20 11:33:07;;;;;;;6.28;3.22;;;13.20;94.30;;;;;;5087969;28;20066;-61
2022/01/20 11:35:44;;;;;;;10.35;7.28;;;13.10;94.80;;;;;;5090143;28;20055;-61
2022/01/20 11:38:18;;;;;;;12.23;7.13;;;13.10;95.00;;;;;;5092053;28;20134;-61
2022/01/20 11:40:52;;;;;;;6.13;3.42;;;13.40;95.00;;;;;;5113388;27;20039;-61
2022/01/20 11:43:35;;;;;;;13.90;8.05;;;13.60;94.60;;;;;;5158748;27;20042;-61
2022/01/20 11:46:15;;;;;;;6.15;3.50;;;13.50;94.50;;;;;;5141008;27;20074;-61
2022/01/20 11:49:10;;;;;;;24.38;16.98;;;13.30;94.80;;;;;;5159196;27;20081;-61
2022/01/20 11:51:47;;;;;;;32.15;19.88;;;13.10;95.20;;;;;;5121754;27;20078;-61
2022/01/20 11:54:37;;;;;;;11.43;7.25;;;13.00;95.70;;;;;;5141977;27;20134;-61
2022/01/20 11:57:30;;;;;;;10.85;6.38;;;12.70;96.30;;;;;;5158768;27;20095;-61
2022/01/20 12:00:24;;;;;;;11.30;6.03;;;12.60;96.70;;;;;;5123152;27;20400;-61
2022/01/20 12:02:52;;;;;;;8.88;3.92;;;12.50;97.10;;;;;;5122375;27;20496;-61
2022/01/20 12:05:34;;;;;;;8.32;3.45;;;12.60;97.20;;;;;;5124526;27;20039;-62
2022/01/20 12:08:22;;;;;;;6.80;3.90;;;12.60;97.30;;;;;;5115291;27;20111;-61
2022/01/20 12:11:00;;;;;;;6.72;3.95;;;12.60;97.30;;;;;;5158256;27;20050;-61
2022/01/20 12:13:28;;;;;;;6.53;3.85;;;12.50;97.40;;;;;;5140189;27;20408;-60
2022/01/20 12:16:00;;;;;;;5.05;3.30;;;12.50;97.80;;;;;;5084327;28;20040;-61
2022/01/20 12:18:30;;;;;;;6.45;3.95;;;12.50;98.20;;;;;;5098953;28;20039;-60
2022/01/20 12:21:04;;;;;;;8.50;4.82;;;12.20;98.90;;;;;;5115174;27;20035;-60
2022/01/20 12:23:43;;;;;;;8.35;3.90;;;12.20;99.20;;;;;;5099264;27;20100;-60
2022/01/20 12:26:11;;;;;;;6.05;3.30;;;12.20;99.40;;;;;;5099794;28;20020;-61
2022/01/20 12:28:39;;;;;;;6.03;3.25;;;12.10;99.70;;;;;;5112294;27;20054;-60
2022/01/20 12:31:12;;;;;;;8.15;3.90;;;12.10;99.90;;;;;;5083703;27;20126;-62
2022/01/20 12:33:46;;;;;;;24.13;5.00;;;12.00;99.90;;;;;;5134769;27;20493;-60
2022/01/20 12:36:16;;;;;;;7.93;3.50;;;11.90;99.90;;;;;;5084359;27;20047;-60
2022/01/20 12:38:50;;;;;;;30.15;17.13;;;11.90;99.90;;;;;;5126380;27;20088;-60
2022/01/20 12:41:22;;;;;;;6.05;3.58;;;11.90;99.90;;;;;;5100523;27;20055;-60
2022/01/20 12:43:58;;;;;;;5.60;3.85;;;11.90;99.90;;;;;;5134727;27;20063;-60
2022/01/20 12:46:30;;;;;;;5.50;3.45;;;12.00;99.90;;;;;;5135721;27;20540;-60
2022/01/20 12:49:11;;;;;;;4.53;2.95;;;12.10;99.90;;;;;;5116980;27;20449;-60
2022/01/20 12:51:42;;;;;;;4.93;3.40;;;12.30;99.90;;;;;;5085038;27;20062;-60
2022/01/20 12:54:21;;;;;;;4.00;2.53;;;12.40;99.90;;;;;;5118609;27;20047;-61
2022/01/20 12:56:50;;;;;;;4.20;2.90;;;12.40;99.90;;;;;;5118602;27;20092;-60
2022/01/20 12:59:33;;;;;;;7.00;3.00;;;12.40;99.90;;;;;;5118199;27;20043;-61
2022/01/20 13:02:05;;;;;;;4.25;2.88;;;12.40;99.90;;;;;;5136074;27;20045;-62
2022/01/20 13:04:36;;;;;;;7.43;2.90;;;12.40;99.90;;;;;;5135967;27;20424;-61
2022/01/20 13:07:05;;;;;;;6.13;3.25;;;12.30;99.90;;;;;;5117833;27;20146;-60
2022/01/20 13:09:46;;;;;;;7.85;4.38;;;12.30;99.90;;;;;;5136265;27;20050;-60
2022/01/20 13:12:17;;;;;;;7.35;3.67;;;12.20;99.90;;;;;;5118447;27;20131;-60
2022/01/20 13:14:51;;;;;;;9.75;4.30;;;12.20;99.90;;;;;;5118254;27;20126;-60
2022/01/20 13:17:22;;;;;;;13.35;4.57;;;12.20;99.90;;;;;;5118219;27;20401;-61
2022/01/20 13:19:54;;;;;;;10.90;5.28;;;12.30;99.90;;;;;;5136384;27;20077;-60
2022/01/20 13:22:27;;;;;;;10.45;3.67;;;12.30;99.90;;;;;;5136410;27;20043;-60
2022/01/20 13:25:05;;;;;;;8.70;5.40;;;12.20;99.90;;;;;;5136229;27;20039;-61
2022/01/20 13:27:33;;;;;;;7.30;4.63;;;12.20;99.90;;;;;;5136228;27;20054;-62
2022/01/20 13:30:01;;;;;;;5.88;2.95;;;12.30;99.90;;;;;;5135853;27;20076;-60
2022/01/20 13:32:28;;;;;;;5.68;3.67;;;12.20;99.90;;;;;;5136046;27;20039;-61
2022/01/20 13:34:59;;;;;;;9.60;4.90;;;12.30;99.90;;;;;;5136184;27;20043;-60
2022/01/20 13:37:30;;;;;;;7.47;3.65;;;12.40;99.80;;;;;;5100791;27;20050;-61
2022/01/20 13:39:59;;;;;;;6.82;4.18;;;12.40;99.70;;;;;;5117952;27;20078;-60
2022/01/20 13:44:59;;;;;;;6.32;4.05;;;12.40;99.90;;;;;;5135760;27;20064;-61
2022/01/20 13:45:46;;;;;;;6.57;3.30;;;12.40;99.70;;;;;;5117675;27;20047;-63
2022/01/20 13:48:23;;;;;;;6.15;3.55;;;12.40;99.90;;;;;;5135386;27;20138;-61
2022/01/20 13:50:58;;;;;;;4.60;2.65;;;12.30;99.90;;;;;;5135538;27;20050;-61
2022/01/20 13:53:28;;;;;;;5.93;3.42;;;12.30;99.90;;;;;;5117461;27;20126;-61
2022/01/20 13:56:00;;;;;;;8.80;4.95;;;12.30;99.90;;;;;;5135366;27;20485;-61
2022/01/20 13:58:29;;;;;;;6.68;4.55;;;12.40;99.90;;;;;;5117297;27;20046;-61
2022/01/20 14:01:00;;;;;;;5.70;4.03;;;12.40;99.90;;;;;;5117085;27;20039;-61
2022/01/20 14:03:27;;;;;;;10.15;4.88;;;12.40;99.80;;;;;;5117117;27;20039;-61
2022/01/20 14:05:55;;;;;;;7.28;4.20;;;12.30;99.80;;;;;;5117187;27;20070;-61
2022/01/20 14:08:25;;;;;;;5.03;3.40;;;12.30;99.20;;;;;;5116967;27;20061;-61
2022/01/20 14:10:54;;;;;;;6.93;3.80;;;12.30;99.30;;;;;;5116598;27;20047;-61
2022/01/20 14:13:22;;;;;;;7.15;3.72;;;12.30;99.90;;;;;;5100043;27;20054;-62
2022/01/20 14:15:52;;;;;;;7.70;3.75;;;12.20;99.90;;;;;;5099861;27;20039;-61
2022/01/20 14:18:22;;;;;;;5.32;3.65;;;12.30;99.90;;;;;;5134887;27;20047;-60
2022/01/20 14:20:49;;;;;;;5.45;3.00;;;12.30;99.90;;;;;;5099891;27;20088;-60